createdAt,value
2022-09-30T00:01:36.633Z,95704.44
2022-09-30T00:04:05.458Z,95701.81
2022-09-30T00:06:36.133Z,95705.72
2022-09-30T00:09:05.019Z,95701.44
2022-09-30T00:11:38.733Z,95694.06
2022-09-30T00:14:07.985Z,95698.41
2022-09-30T00:16:38.125Z,95695.63
2022-09-30T00:19:06.564Z,95708.66
2022-09-30T00:21:35.195Z,95707.00
2022-09-30T00:24:04.938Z,95714.06
2022-09-30T00:26:35.797Z,95714.91
2022-09-30T00:29:05.220Z,95716.44
2022-09-30T00:31:35.831Z,95713.09
2022-09-30T00:34:11.192Z,95714.91
2022-09-30T00:36:44.406Z,95716.44
2022-09-30T00:39:16.310Z,95717.97
2022-09-30T00:41:47.482Z,95715.06
2022-09-30T00:44:51.749Z,95720.13
2022-09-30T00:47:46.835Z,95724.06
2022-09-30T00:50:45.248Z,95713.91
2022-09-30T00:53:17.689Z,95718.69
2022-09-30T00:55:51.332Z,95715.34
2022-09-30T00:58:25.800Z,95714.22
2022-09-30T01:00:54.081Z,95717.69
2022-09-30T01:03:23.825Z,95718.44
2022-09-30T01:05:52.949Z,95719.50
2022-09-30T01:08:22.090Z,95723.13
2022-09-30T01:10:50.318Z,95723.13
2022-09-30T01:13:23.674Z,95727.31
2022-09-30T01:16:07.233Z,95730.03
2022-09-30T01:18:50.126Z,95733.66
2022-09-30T01:21:51.846Z,95724.06
2022-09-30T01:24:39.749Z,95731.00
2022-09-30T01:27:23.953Z,95737.22
2022-09-30T01:30:12.501Z,95733.66
2022-09-30T01:33:18.638Z,95733.41
2022-09-30T01:36:07.321Z,95733.41
2022-09-30T01:38:46.632Z,95728.38
2022-09-30T01:41:22.977Z,95728.97
2022-09-30T01:44:04.599Z,95727.41
2022-09-30T01:46:38.564Z,95726.22
2022-09-30T01:49:18.062Z,95731.59
2022-09-30T01:51:55.243Z,95736.88
2022-09-30T01:54:28.446Z,95743.13
2022-09-30T01:57:02.281Z,95746.31
2022-09-30T01:59:36.313Z,95747.41
2022-09-30T02:02:10.804Z,95754.38
2022-09-30T02:04:44.122Z,95760.00
2022-09-30T02:07:18.296Z,95757.34
2022-09-30T02:09:52.178Z,95759.13
2022-09-30T02:12:22.472Z,95757.59
2022-09-30T02:14:57.582Z,95739.88
2022-09-30T02:17:30.714Z,95755.56
2022-09-30T02:20:03.764Z,95756.66
2022-09-30T02:22:37.506Z,95751.38
2022-09-30T02:25:08.438Z,95759.41
2022-09-30T02:27:42.320Z,95764.34
2022-09-30T02:30:13.767Z,95758.25
2022-09-30T02:32:47.600Z,95759.81
2022-09-30T02:35:21.163Z,95763.41
2022-09-30T02:37:53.758Z,95770.34
2022-09-30T02:40:28.223Z,95769.38
2022-09-30T02:42:56.701Z,95765.06
2022-09-30T02:45:25.628Z,95759.81
2022-09-30T02:48:17.825Z,95769.50
2022-09-30T02:50:52.664Z,95771.16
2022-09-30T02:53:28.234Z,95765.19
2022-09-30T02:56:20.855Z,95779.91
2022-09-30T02:58:51.095Z,95779.66
2022-09-30T03:01:19.288Z,95782.13
2022-09-30T03:03:50.292Z,95782.13
2022-09-30T03:06:20.460Z,95779.50
2022-09-30T03:08:48.773Z,95787.56
2022-09-30T03:11:19.317Z,95786.56
2022-09-30T03:14:24.094Z,95795.56
2022-09-30T03:17:20.269Z,95797.38
2022-09-30T03:20:04.365Z,95796.28
2022-09-30T03:22:55.904Z,95798.47
2022-09-30T03:25:36.500Z,95802.22
2022-09-30T03:28:17.558Z,95801.22
2022-09-30T03:30:53.110Z,95803.44
2022-09-30T03:33:26.267Z,95817.69
2022-09-30T03:36:01.852Z,95815.06
2022-09-30T03:38:42.660Z,95818.41
2022-09-30T03:41:16.788Z,95820.19
2022-09-30T03:43:49.221Z,95820.31
2022-09-30T03:46:23.245Z,95819.06
2022-09-30T03:48:54.179Z,95817.47
2022-09-30T03:51:24.947Z,95816.66
2022-09-30T03:53:55.498Z,95816.91
2022-09-30T03:56:28.400Z,95818.00
2022-09-30T03:58:57.466Z,95825.75
2022-09-30T04:01:25.931Z,95821.09
2022-09-30T04:03:55.257Z,95831.75
2022-09-30T04:06:25.355Z,95837.97
2022-09-30T04:08:54.976Z,95838.25
2022-09-30T04:11:23.090Z,95845.16
2022-09-30T04:13:51.118Z,95842.16
2022-09-30T04:16:19.260Z,95846.00
2022-09-30T04:18:47.342Z,95853.91
2022-09-30T04:21:17.088Z,95854.03
2022-09-30T04:23:45.198Z,95855.59
2022-09-30T04:26:15.902Z,95852.09
2022-09-30T04:28:44.521Z,95842.53
2022-09-30T04:31:14.052Z,95848.63
2022-09-30T04:33:42.164Z,95854.28
2022-09-30T04:36:11.301Z,95842.09
2022-09-30T04:38:39.376Z,95841.72
2022-09-30T04:41:08.329Z,95840.03
2022-09-30T04:43:37.750Z,95845.44
2022-09-30T04:46:06.403Z,95851.41
2022-09-30T04:48:34.551Z,95860.97
2022-09-30T04:51:02.643Z,95862.06
2022-09-30T04:53:30.717Z,95867.59
2022-09-30T04:56:03.348Z,95883.50
2022-09-30T04:58:36.647Z,95885.41
2022-09-30T05:01:08.115Z,95876.31
2022-09-30T05:03:36.636Z,95882.41
2022-09-30T05:06:06.113Z,95881.56
2022-09-30T05:08:34.854Z,95886.72
2022-09-30T05:11:05.707Z,95888.38
2022-09-30T05:13:35.846Z,95895.91
2022-09-30T05:16:04.563Z,95894.38
2022-09-30T05:18:34.424Z,95887.28
2022-09-30T05:21:03.221Z,95891.72
2022-09-30T05:23:32.909Z,95884.53
2022-09-30T05:26:01.428Z,95888.72
2022-09-30T05:28:31.329Z,95891.34
2022-09-30T05:31:01.320Z,95892.44
2022-09-30T05:33:30.943Z,95894.00
2022-09-30T05:36:02.553Z,95900.69
2022-09-30T05:38:30.874Z,95905.22
2022-09-30T05:40:59.039Z,95912.16
2022-09-30T05:43:27.019Z,95905.94
2022-09-30T05:45:55.746Z,95914.78
2022-09-30T05:48:24.911Z,95907.59
2022-09-30T05:50:55.941Z,95901.50
2022-09-30T05:53:25.989Z,95904.38
2022-09-30T05:55:54.020Z,95909.84
2022-09-30T05:58:22.573Z,95906.84
2022-09-30T06:00:50.857Z,95914.03
2022-09-30T06:03:19.435Z,95918.22
2022-09-30T06:05:47.719Z,95916.03
2022-09-30T06:08:16.770Z,95927.41
2022-09-30T06:10:46.666Z,95929.53
2022-09-30T06:13:14.909Z,95927.88
2022-09-30T06:15:42.970Z,95928.34
2022-09-30T06:18:17.035Z,95932.63
2022-09-30T06:20:45.807Z,95937.78
2022-09-30T06:23:13.803Z,95940.03
2022-09-30T06:25:43.715Z,95946.97
2022-09-30T06:28:13.261Z,95947.56
2022-09-30T06:30:41.300Z,95953.66
2022-09-30T06:33:09.295Z,95958.28
2022-09-30T06:35:38.069Z,95958.78
2022-09-30T06:38:06.068Z,95960.31
2022-09-30T06:40:34.084Z,95963.38
2022-09-30T06:43:03.450Z,95964.22
2022-09-30T06:45:35.711Z,95968.50
2022-09-30T06:48:06.015Z,95976.31
2022-09-30T06:50:34.439Z,95979.53
2022-09-30T06:53:06.173Z,95972.19
2022-09-30T06:55:36.613Z,95980.81
2022-09-30T06:58:04.729Z,95982.34
2022-09-30T07:00:34.183Z,95990.13
2022-09-30T07:03:02.200Z,95987.50
2022-09-30T07:05:30.463Z,96001.41
2022-09-30T07:08:00.228Z,95996.94
2022-09-30T07:10:28.348Z,96002.78
2022-09-30T07:12:56.394Z,96003.94
2022-09-30T07:15:24.396Z,96004.09
2022-09-30T07:17:56.658Z,96003.31
2022-09-30T07:20:24.837Z,96006.78
2022-09-30T07:22:52.918Z,96014.31
2022-09-30T07:25:20.898Z,96009.75
2022-09-30T07:27:48.702Z,96006.56
2022-09-30T07:30:25.879Z,96022.00
2022-09-30T07:32:56.419Z,96015.78
2022-09-30T07:35:24.311Z,96011.75
2022-09-30T07:37:52.213Z,96012.34
2022-09-30T07:40:20.152Z,96014.72
2022-09-30T07:42:48.048Z,96017.22
2022-09-30T07:45:19.415Z,96022.94
2022-09-30T07:47:52.706Z,96026.28
2022-09-30T07:50:23.037Z,96023.09
2022-09-30T07:52:50.920Z,96031.22
2022-09-30T07:55:18.838Z,96035.50
2022-09-30T07:57:46.742Z,96036.22
2022-09-30T08:00:40.540Z,96046.25
2022-09-30T08:03:02.627Z,96052.91
2022-09-30T08:05:31.914Z,96054.34
2022-09-30T08:07:59.831Z,96047.00
2022-09-30T08:10:27.722Z,96048.38
2022-09-30T08:12:58.025Z,96054.69
2022-09-30T08:15:27.848Z,96050.69
2022-09-30T08:17:55.727Z,96059.84
2022-09-30T08:20:23.577Z,96068.34
2022-09-30T08:22:55.288Z,96068.50
2022-09-30T08:25:23.770Z,96062.25
2022-09-30T08:27:52.265Z,96064.25
2022-09-30T08:30:20.172Z,96069.97
2022-09-30T08:32:48.092Z,96077.50
2022-09-30T08:35:16.248Z,96076.25
2022-09-30T08:37:44.428Z,96078.75
2022-09-30T08:40:21.097Z,96075.56
2022-09-30T08:43:04.790Z,96075.28
2022-09-30T08:45:41.115Z,96069.31
2022-09-30T08:48:21.772Z,96079.47
2022-09-30T08:51:00.937Z,96082.69
2022-09-30T08:53:32.757Z,96074.88
2022-09-30T08:56:03.425Z,96086.56
2022-09-30T08:58:33.880Z,96076.56
2022-09-30T09:01:07.950Z,96075.56
2022-09-30T09:03:36.052Z,96076.56
2022-09-30T09:06:19.700Z,96078.38
2022-09-30T09:09:03.495Z,96080.31
2022-09-30T09:11:47.412Z,96074.06
2022-09-30T09:14:25.602Z,96077.13
2022-09-30T09:17:10.658Z,96080.47
2022-09-30T09:19:48.580Z,96068.47
2022-09-30T09:22:18.218Z,96070.84
2022-09-30T09:24:51.160Z,96074.88
2022-09-30T09:27:24.505Z,96088.66
2022-09-30T09:30:02.663Z,96084.34
2022-09-30T09:32:30.583Z,96079.47
2022-09-30T09:35:02.736Z,96082.38
2022-09-30T09:37:55.951Z,96089.59
2022-09-30T09:40:34.312Z,96088.91
2022-09-30T09:43:13.211Z,96088.47
2022-09-30T09:45:50.939Z,96089.88
2022-09-30T09:48:18.873Z,96092.78
2022-09-30T09:50:56.851Z,96097.38
2022-09-30T09:53:42.598Z,96094.59
2022-09-30T09:56:18.718Z,96096.25
2022-09-30T09:59:09.356Z,96096.38
2022-09-30T10:01:40.363Z,96104.16
2022-09-30T10:04:11.720Z,96104.03
2022-09-30T10:06:48.611Z,96103.59
2022-09-30T10:09:24.481Z,96098.00
2022-09-30T10:11:52.512Z,96107.34
2022-09-30T10:14:23.456Z,96108.44
2022-09-30T10:16:51.539Z,96102.28
2022-09-30T10:19:22.643Z,96102.69
2022-09-30T10:21:52.881Z,96099.47
2022-09-30T10:24:30.615Z,96105.25
2022-09-30T10:26:58.610Z,96107.63
2022-09-30T10:29:31.908Z,96119.97
2022-09-30T10:32:01.046Z,96116.72
2022-09-30T10:34:33.231Z,96112.75
2022-09-30T10:37:08.543Z,96107.88
2022-09-30T10:39:38.919Z,96109.25
2022-09-30T10:42:12.583Z,96109.56
2022-09-30T10:44:45.940Z,96113.13
2022-09-30T10:47:17.363Z,96114.50
2022-09-30T10:49:48.721Z,96114.38
2022-09-30T10:52:20.368Z,96115.31
2022-09-30T10:54:51.831Z,96108.38
2022-09-30T10:57:24.141Z,96116.47
2022-09-30T10:59:58.735Z,96116.22
2022-09-30T11:02:36.145Z,96113.28
2022-09-30T11:05:21.096Z,96112.75
2022-09-30T11:07:55.638Z,96110.91
2022-09-30T11:10:35.955Z,96109.66
2022-09-30T11:13:14.398Z,96099.72
2022-09-30T11:16:03.986Z,96109.22
2022-09-30T11:18:37.009Z,96107.69
2022-09-30T11:21:13.922Z,96096.63
2022-09-30T11:23:47.218Z,96094.66
2022-09-30T11:26:29.007Z,96103.91
2022-09-30T11:29:13.669Z,96106.41
2022-09-30T11:31:53.354Z,96120.94
2022-09-30T11:34:35.893Z,96107.66
2022-09-30T11:37:16.492Z,96113.31
2022-09-30T11:40:16.414Z,96111.50
2022-09-30T11:42:51.253Z,96115.69
2022-09-30T11:45:31.641Z,96117.34
2022-09-30T11:48:19.313Z,96118.19
2022-09-30T11:50:58.249Z,96119.69
2022-09-30T11:53:35.823Z,96121.38
2022-09-30T11:56:14.024Z,96117.94
2022-09-30T11:58:48.907Z,96114.56
2022-09-30T12:01:30.009Z,96118.25
2022-09-30T12:04:06.817Z,96117.41
2022-09-30T12:06:37.405Z,96119.44
2022-09-30T12:09:15.408Z,96118.47
2022-09-30T12:11:50.250Z,96123.16
2022-09-30T12:14:23.360Z,96117.38
2022-09-30T12:16:51.860Z,96118.88
2022-09-30T12:19:26.513Z,96115.09
2022-09-30T12:22:00.092Z,96104.47
2022-09-30T12:24:36.162Z,96104.16
2022-09-30T12:27:05.391Z,96113.75
2022-09-30T12:29:56.490Z,96118.56
2022-09-30T12:32:51.618Z,96119.25
2022-09-30T12:35:37.976Z,96116.13
2022-09-30T12:38:28.335Z,96125.25
2022-09-30T12:41:11.997Z,96127.69
2022-09-30T12:44:16.759Z,96128.16
2022-09-30T12:47:01.005Z,96131.34
2022-09-30T12:49:30.822Z,96130.44
2022-09-30T12:52:06.842Z,96128.09
2022-09-30T12:54:39.514Z,96126.44
2022-09-30T12:57:10.550Z,96130.41
2022-09-30T12:59:46.607Z,96138.66
2022-09-30T13:02:31.937Z,96132.88
2022-09-30T13:05:38.180Z,96132.69
2022-09-30T13:08:25.395Z,96140.66
2022-09-30T13:10:59.536Z,96137.78
2022-09-30T13:13:29.228Z,96140.94
2022-09-30T13:16:03.279Z,96135.25
2022-09-30T13:19:03.030Z,96139.16
2022-09-30T13:21:32.563Z,96136.94
2022-09-30T13:24:03.775Z,96144.22
2022-09-30T13:27:08.435Z,96142.25
2022-09-30T13:29:40.110Z,96140.72
2022-09-30T13:32:10.591Z,96151.19
2022-09-30T13:34:56.959Z,96138.06
2022-09-30T13:37:34.622Z,96148.53
2022-09-30T13:40:07.539Z,96150.59
2022-09-30T13:42:42.571Z,96144.44
2022-09-30T13:45:17.673Z,96147.47
2022-09-30T13:47:50.566Z,96145.78
2022-09-30T13:50:22.224Z,96141.16
2022-09-30T13:52:55.040Z,96143.69
2022-09-30T13:55:29.668Z,96143.50
2022-09-30T13:58:12.161Z,96149.34
2022-09-30T14:00:54.500Z,96148.53
2022-09-30T14:03:44.807Z,96150.09
2022-09-30T14:06:24.959Z,96158.28
2022-09-30T14:09:18.248Z,96155.69
2022-09-30T14:12:04.692Z,96156.34
2022-09-30T14:15:02.484Z,96157.22
2022-09-30T14:17:44.345Z,96160.00
2022-09-30T14:20:38.073Z,96163.84
2022-09-30T14:23:14.523Z,96163.84
2022-09-30T14:25:50.763Z,96165.06
2022-09-30T14:28:26.824Z,96160.91
2022-09-30T14:31:13.281Z,96164.91
2022-09-30T14:33:43.625Z,96158.28
2022-09-30T14:36:15.987Z,96158.28
2022-09-30T14:38:47.167Z,96162.94
2022-09-30T14:41:20.901Z,96155.28
2022-09-30T14:43:53.152Z,96159.28
2022-09-30T14:46:30.264Z,96160.44
2022-09-30T14:49:04.628Z,96155.13
2022-09-30T14:51:43.303Z,96147.31
2022-09-30T14:54:19.058Z,96146.63
2022-09-30T14:56:48.315Z,96154.44
2022-09-30T14:59:22.959Z,96142.31
2022-09-30T15:01:55.523Z,96145.09
2022-09-30T15:04:26.836Z,96148.09
2022-09-30T15:06:56.675Z,96139.75
2022-09-30T15:09:28.588Z,96142.09
2022-09-30T15:11:58.289Z,96136.41
2022-09-30T15:14:27.874Z,96147.19
2022-09-30T15:16:59.490Z,96141.88
2022-09-30T15:19:35.320Z,96140.38
2022-09-30T15:22:05.957Z,96142.47
2022-09-30T15:24:36.491Z,96135.66
2022-09-30T15:27:06.235Z,96138.31
2022-09-30T15:29:35.704Z,96143.94
2022-09-30T15:32:12.939Z,96146.94
2022-09-30T15:34:43.610Z,96144.41
2022-09-30T15:37:21.668Z,96148.22
2022-09-30T15:40:07.793Z,96144.88
2022-09-30T15:42:38.631Z,96154.13
2022-09-30T15:45:35.001Z,96148.81
2022-09-30T15:48:06.165Z,96148.75
2022-09-30T15:50:39.957Z,96151.56
2022-09-30T15:53:19.053Z,96154.53
2022-09-30T15:55:50.641Z,96158.19
2022-09-30T15:58:37.879Z,96160.44
2022-09-30T16:01:18.632Z,96152.78
2022-09-30T16:03:54.334Z,96164.41
2022-09-30T16:06:29.405Z,96155.72
2022-09-30T16:09:01.418Z,96159.34
2022-09-30T16:11:34.888Z,96164.84
2022-09-30T16:14:06.156Z,96168.63
2022-09-30T16:16:39.077Z,96170.44
2022-09-30T16:19:07.946Z,96170.59
2022-09-30T16:21:44.948Z,96178.78
2022-09-30T16:24:44.342Z,96176.59
2022-09-30T16:27:29.202Z,96176.34
2022-09-30T16:29:57.844Z,96171.63
2022-09-30T16:32:33.786Z,96171.94
2022-09-30T16:35:02.116Z,96176.03
2022-09-30T16:37:30.707Z,96173.38
2022-09-30T16:40:08.660Z,96167.53
2022-09-30T16:42:36.915Z,96171.31
2022-09-30T16:45:06.736Z,96171.09
2022-09-30T16:47:36.193Z,96171.22
2022-09-30T16:50:16.634Z,96172.53
2022-09-30T16:52:44.754Z,96172.13
2022-09-30T16:55:12.975Z,96177.34
2022-09-30T16:57:41.229Z,96179.31
2022-09-30T17:00:15.617Z,96183.13
2022-09-30T17:02:45.972Z,96192.66
2022-09-30T17:05:16.209Z,96188.63
2022-09-30T17:07:45.926Z,96195.63
2022-09-30T17:10:21.339Z,96185.06
2022-09-30T17:12:50.259Z,96196.25
2022-09-30T17:15:19.728Z,96200.72
2022-09-30T17:17:49.254Z,96205.75
2022-09-30T17:20:17.492Z,96206.91
2022-09-30T17:22:46.291Z,96209.81
2022-09-30T17:25:15.050Z,96208.56
2022-09-30T17:27:44.199Z,96207.75
2022-09-30T17:30:13.071Z,96209.97
2022-09-30T17:32:42.491Z,96203.59
2022-09-30T17:35:12.763Z,96213.88
2022-09-30T17:37:43.815Z,96212.66
2022-09-30T17:40:34.300Z,96209.44
2022-09-30T17:43:14.625Z,96213.47
2022-09-30T17:45:46.240Z,96209.44
2022-09-30T17:48:16.264Z,96212.78
2022-09-30T17:50:49.102Z,96218.91
2022-09-30T17:53:19.108Z,96228.38
2022-09-30T17:55:49.234Z,96226.53
2022-09-30T17:58:18.965Z,96229.16
2022-09-30T18:00:47.871Z,96238.91
2022-09-30T18:03:15.923Z,96236.94
2022-09-30T18:05:45.801Z,96238.19
2022-09-30T18:08:14.448Z,96238.84
2022-09-30T18:10:42.621Z,96242.47
2022-09-30T18:13:11.577Z,96241.22
2022-09-30T18:15:40.015Z,96246.59
2022-09-30T18:18:08.443Z,96247.69
2022-09-30T18:20:36.459Z,96260.34
2022-09-30T18:23:07.730Z,96261.28
2022-09-30T18:25:35.755Z,96263.94
2022-09-30T18:28:03.947Z,96268.88
2022-09-30T18:30:32.201Z,96267.59
2022-09-30T18:33:00.195Z,96267.94
2022-09-30T18:35:30.191Z,96263.75
2022-09-30T18:37:58.405Z,96267.91
2022-09-30T18:40:30.180Z,96275.00
2022-09-30T18:43:01.798Z,96278.28
2022-09-30T18:45:32.535Z,96281.06
2022-09-30T18:48:01.546Z,96284.09
2022-09-30T18:50:31.283Z,96289.47
2022-09-30T18:53:03.661Z,96290.56
2022-09-30T18:55:39.508Z,96295.19
2022-09-30T18:58:07.719Z,96296.19
2022-09-30T19:00:36.086Z,96290.91
2022-09-30T19:03:10.213Z,96291.28
2022-09-30T19:05:38.119Z,96292.63
2022-09-30T19:08:06.144Z,96288.09
2022-09-30T19:10:34.778Z,96287.28
2022-09-30T19:13:04.007Z,96288.50
2022-09-30T19:15:31.881Z,96291.38
2022-09-30T19:17:59.963Z,96290.34
2022-09-30T19:20:28.226Z,96292.84
2022-09-30T19:22:56.095Z,96301.38
2022-09-30T19:25:24.063Z,96301.38
2022-09-30T19:27:53.011Z,96293.84
2022-09-30T19:30:25.727Z,96296.97
2022-09-30T19:32:59.365Z,96298.06
2022-09-30T19:35:37.784Z,96300.81
2022-09-30T19:38:08.405Z,96297.84
2022-09-30T19:40:37.275Z,96298.56
2022-09-30T19:43:06.363Z,96293.28
2022-09-30T19:45:36.197Z,96298.00
2022-09-30T19:48:04.211Z,96288.53
2022-09-30T19:50:34.174Z,96291.66
2022-09-30T19:53:02.105Z,96284.91
2022-09-30T19:55:32.803Z,96277.75
2022-09-30T19:58:04.143Z,96275.63
2022-09-30T20:00:32.251Z,96269.00
2022-09-30T20:03:01.567Z,96273.81
2022-09-30T20:05:29.501Z,96277.53
2022-09-30T20:07:57.399Z,96273.34
2022-09-30T20:10:25.857Z,96274.66
2022-09-30T20:12:54.096Z,96271.78
2022-09-30T20:15:45.291Z,96272.97
2022-09-30T20:18:16.896Z,96273.47
2022-09-30T20:20:47.992Z,96267.59
2022-09-30T20:23:16.274Z,96264.50
2022-09-30T20:25:44.313Z,96266.28
2022-09-30T20:28:12.549Z,96277.41
2022-09-30T20:30:47.703Z,96278.50
2022-09-30T20:33:19.365Z,96279.22
2022-09-30T20:35:48.098Z,96275.28
2022-09-30T20:38:19.256Z,96284.22
2022-09-30T20:40:47.195Z,96291.50
2022-09-30T20:43:15.101Z,96291.03
2022-09-30T20:45:43.094Z,96298.09
2022-09-30T20:48:10.954Z,96300.94
2022-09-30T20:50:43.462Z,96303.81
2022-09-30T20:53:13.750Z,96301.31
2022-09-30T20:55:44.650Z,96304.19
2022-09-30T20:58:14.274Z,96297.59
2022-09-30T21:00:43.313Z,96303.69
2022-09-30T21:03:13.285Z,96311.69
2022-09-30T21:05:42.653Z,96325.84
2022-09-30T21:08:10.573Z,96321.03
2022-09-30T21:10:38.810Z,96332.13
2022-09-30T21:13:11.360Z,96322.19
2022-09-30T21:15:40.068Z,96320.16
2022-09-30T21:18:10.139Z,96333.31
2022-09-30T21:20:38.336Z,96330.69
2022-09-30T21:23:07.600Z,96335.84
2022-09-30T21:25:35.447Z,96338.47
2022-09-30T21:28:03.485Z,96342.53
2022-09-30T21:30:31.463Z,96356.13
2022-09-30T21:32:59.484Z,96358.41
2022-09-30T21:35:27.638Z,96357.81
2022-09-30T21:37:55.443Z,96357.19
2022-09-30T21:40:24.777Z,96362.91
2022-09-30T21:42:52.743Z,96360.63
2022-09-30T21:45:20.671Z,96363.47
2022-09-30T21:47:49.924Z,96371.50
2022-09-30T21:50:18.300Z,96379.38
2022-09-30T21:52:47.413Z,96379.72
2022-09-30T21:55:15.364Z,96385.06
2022-09-30T21:57:45.903Z,96376.34
2022-09-30T22:00:14.290Z,96380.03
2022-09-30T22:02:42.225Z,96384.56
2022-09-30T22:05:11.036Z,96371.09
2022-09-30T22:07:39.102Z,96366.16
2022-09-30T22:10:09.039Z,96358.13
2022-09-30T22:12:37.074Z,96355.63
2022-09-30T22:15:07.352Z,96353.53
2022-09-30T22:17:35.226Z,96354.81
2022-09-30T22:20:03.183Z,96352.88
2022-09-30T22:22:31.055Z,96351.81
2022-09-30T22:24:58.953Z,96353.34
2022-09-30T22:27:27.035Z,96341.13
2022-09-30T22:29:54.903Z,96341.84
2022-09-30T22:32:24.115Z,96337.31
2022-09-30T22:35:23.819Z,96343.00
2022-09-30T22:38:09.246Z,96341.13
2022-09-30T22:40:37.444Z,96365.47
2022-09-30T22:43:05.396Z,96354.09
2022-09-30T22:45:33.847Z,96350.22
2022-09-30T22:48:03.387Z,96353.69
2022-09-30T22:50:32.565Z,96353.00
2022-09-30T22:53:00.444Z,96346.28
2022-09-30T22:55:28.483Z,96335.84
2022-09-30T22:57:56.368Z,96337.88
2022-09-30T23:00:24.453Z,96341.66
2022-09-30T23:02:52.867Z,96357.78
2022-09-30T23:05:22.260Z,96349.38
2022-09-30T23:07:50.258Z,96346.75
2022-09-30T23:10:18.143Z,96344.94
2022-09-30T23:12:46.272Z,96352.00
2022-09-30T23:15:14.323Z,96347.47
2022-09-30T23:17:42.208Z,96350.44
2022-09-30T23:20:10.461Z,96353.47
2022-09-30T23:22:39.788Z,96352.00
2022-09-30T23:25:08.954Z,96354.63
2022-09-30T23:27:36.857Z,96353.06
2022-09-30T23:30:05.128Z,96349.50
2022-09-30T23:32:33.060Z,96358.44
2022-09-30T23:35:01.499Z,96361.50
2022-09-30T23:37:29.379Z,96368.56
2022-09-30T23:39:58.667Z,96367.16
2022-09-30T23:42:26.567Z,96365.59
2022-09-30T23:44:54.401Z,96367.63
2022-09-30T23:47:22.662Z,96359.00
2022-09-30T23:49:50.524Z,96360.66
2022-09-30T23:52:18.509Z,96361.84
2022-09-30T23:54:46.469Z,96360.03
2022-09-30T23:57:15.843Z,96361.84
2022-09-30T23:59:43.746Z,96365.41
